sensor_id;sensor_type;location;lat;lon;timestamp;pressure;altitude;pressure_sealevel;temperature;humidity
35577;BME280;21680;52.400;16.920;2022-11-06T00:00:56;101155.44;;;4.29;87.37
35577;BME280;21680;52.400;16.920;2022-11-06T00:03:21;101151.05;;;4.26;87.45
35577;BME280;21680;52.400;16.920;2022-11-06T00:05:46;101155.64;;;4.25;87.36
35577;BME280;21680;52.400;16.920;2022-11-06T00:08:33;101157.77;;;4.23;87.53
35577;BME280;21680;52.400;16.920;2022-11-06T00:10:59;101160.09;;;4.23;87.55
35577;BME280;21680;52.400;16.920;2022-11-06T00:13:25;101161.33;;;4.23;87.74
35577;BME280;21680;52.400;16.920;2022-11-06T00:15:50;101169.11;;;4.21;87.57
35577;BME280;21680;52.400;16.920;2022-11-06T00:18:16;101171.96;;;4.19;87.45
35577;BME280;21680;52.400;16.920;2022-11-06T00:20:44;101177.64;;;4.18;87.66
35577;BME280;21680;52.400;16.920;2022-11-06T00:23:09;101175.19;;;4.15;87.59
35577;BME280;21680;52.400;16.920;2022-11-06T00:25:38;101172.73;;;4.14;87.72
35577;BME280;21680;52.400;16.920;2022-11-06T00:28:04;101168.50;;;4.12;87.98
35577;BME280;21680;52.400;16.920;2022-11-06T00:30:29;101173.84;;;4.09;87.51
35577;BME280;21680;52.400;16.920;2022-11-06T00:32:54;101172.98;;;4.05;87.67
35577;BME280;21680;52.400;16.920;2022-11-06T00:35:19;101166.62;;;4.04;87.62
35577;BME280;21680;52.400;16.920;2022-11-06T00:37:45;101162.38;;;4.04;87.88
35577;BME280;21680;52.400;16.920;2022-11-06T00:40:11;101162.73;;;4.03;87.81
35577;BME280;21680;52.400;16.920;2022-11-06T00:42:36;101166.65;;;4.00;87.87
35577;BME280;21680;52.400;16.920;2022-11-06T00:45:02;101167.54;;;3.99;88.04
35577;BME280;21680;52.400;16.920;2022-11-06T00:47:28;101166.84;;;3.99;88.00
35577;BME280;21680;52.400;16.920;2022-11-06T00:49:53;101168.08;;;3.99;87.92
35577;BME280;21680;52.400;16.920;2022-11-06T00:52:18;101168.98;;;3.97;87.91
35577;BME280;21680;52.400;16.920;2022-11-06T00:54:44;101168.99;;;3.95;87.88
35577;BME280;21680;52.400;16.920;2022-11-06T00:57:09;101167.27;;;3.90;87.70
35577;BME280;21680;52.400;16.920;2022-11-06T00:59:34;101169.22;;;3.87;88.03
35577;BME280;21680;52.400;16.920;2022-11-06T01:02:00;101165.89;;;3.84;87.96
35577;BME280;21680;52.400;16.920;2022-11-06T01:04:25;101167.33;;;3.81;87.91
35577;BME280;21680;52.400;16.920;2022-11-06T01:06:52;101166.66;;;3.77;87.82
35577;BME280;21680;52.400;16.920;2022-11-06T01:09:20;101161.73;;;3.73;87.99
35577;BME280;21680;52.400;16.920;2022-11-06T01:11:48;101168.98;;;3.71;88.07
35577;BME280;21680;52.400;16.920;2022-11-06T01:14:15;101170.78;;;3.67;87.94
35577;BME280;21680;52.400;16.920;2022-11-06T01:16:41;101170.13;;;3.62;88.13
35577;BME280;21680;52.400;16.920;2022-11-06T01:19:12;101172.27;;;3.55;87.87
35577;BME280;21680;52.400;16.920;2022-11-06T01:21:40;101168.42;;;3.50;87.98
35577;BME280;21680;52.400;16.920;2022-11-06T01:24:09;101169.15;;;3.45;88.03
35577;BME280;21680;52.400;16.920;2022-11-06T01:26:36;101170.05;;;3.44;88.31
35577;BME280;21680;52.400;16.920;2022-11-06T01:29:03;101171.80;;;3.45;88.45
35577;BME280;21680;52.400;16.920;2022-11-06T01:31:31;101173.23;;;3.45;88.37
35577;BME280;21680;52.400;16.920;2022-11-06T01:33:58;101169.34;;;3.45;88.38
35577;BME280;21680;52.400;16.920;2022-11-06T01:36:25;101165.30;;;3.41;88.39
35577;BME280;21680;52.400;16.920;2022-11-06T01:38:53;101164.61;;;3.39;88.38
35577;BME280;21680;52.400;16.920;2022-11-06T01:41:24;101165.34;;;3.35;88.45
35577;BME280;21680;52.400;16.920;2022-11-06T01:44:02;101160.40;;;3.33;88.30
35577;BME280;21680;52.400;16.920;2022-11-06T01:46:30;101165.16;;;3.32;88.30
35577;BME280;21680;52.400;16.920;2022-11-06T01:49:16;101168.36;;;3.31;88.56
35577;BME280;21680;52.400;16.920;2022-11-06T01:51:57;101163.94;;;3.32;88.45
35577;BME280;21680;52.400;16.920;2022-11-06T01:54:26;101163.77;;;3.31;88.57
35577;BME280;21680;52.400;16.920;2022-11-06T01:56:56;101166.59;;;3.31;88.65
35577;BME280;21680;52.400;16.920;2022-11-06T01:59:27;101168.71;;;3.30;88.50
35577;BME280;21680;52.400;16.920;2022-11-06T02:01:54;101168.55;;;3.27;88.58
35577;BME280;21680;52.400;16.920;2022-11-06T02:04:29;101166.45;;;3.24;88.54
35577;BME280;21680;52.400;16.920;2022-11-06T02:06:57;101164.88;;;3.21;88.39
35577;BME280;21680;52.400;16.920;2022-11-06T02:09:25;101165.95;;;3.19;88.47
35577;BME280;21680;52.400;16.920;2022-11-06T02:12:07;101168.61;;;3.17;88.57
35577;BME280;21680;52.400;16.920;2022-11-06T02:20:36;101164.75;;;3.10;88.61
35577;BME280;21680;52.400;16.920;2022-11-06T02:26:06;101165.13;;;3.04;88.77
35577;BME280;21680;52.400;16.920;2022-11-06T02:28:40;101164.78;;;3.03;88.82
35577;BME280;21680;52.400;16.920;2022-11-06T02:31:12;101156.67;;;3.00;88.68
35577;BME280;21680;52.400;16.920;2022-11-06T02:33:46;101153.69;;;2.98;88.69
35577;BME280;21680;52.400;16.920;2022-11-06T02:36:20;101149.81;;;2.94;88.57
35577;BME280;21680;52.400;16.920;2022-11-06T02:38:50;101153.89;;;2.90;88.56
35577;BME280;21680;52.400;16.920;2022-11-06T02:41:24;101157.96;;;2.86;88.58
35577;BME280;21680;52.400;16.920;2022-11-06T02:43:54;101162.39;;;2.84;88.77
35577;BME280;21680;52.400;16.920;2022-11-06T02:46:33;101168.05;;;2.80;88.77
35577;BME280;21680;52.400;16.920;2022-11-06T02:49:24;101164.19;;;2.73;88.64
35577;BME280;21680;52.400;16.920;2022-11-06T02:51:56;101164.21;;;2.63;88.55
35577;BME280;21680;52.400;16.920;2022-11-06T02:54:25;101165.30;;;2.60;88.49
35577;BME280;21680;52.400;16.920;2022-11-06T02:56:52;101161.80;;;2.55;88.42
35577;BME280;21680;52.400;16.920;2022-11-06T02:59:30;101159.17;;;2.49;88.55
35577;BME280;21680;52.400;16.920;2022-11-06T03:02:00;101161.83;;;2.42;88.42
35577;BME280;21680;52.400;16.920;2022-11-06T03:04:34;101165.37;;;2.37;88.69
35577;BME280;21680;52.400;16.920;2022-11-06T03:07:08;101164.84;;;2.34;88.62
35577;BME280;21680;52.400;16.920;2022-11-06T03:09:36;101168.55;;;2.28;88.74
35577;BME280;21680;52.400;16.920;2022-11-06T03:15:09;101172.61;;;2.21;88.87
35577;BME280;21680;52.400;16.920;2022-11-06T03:20:25;101170.49;;;2.15;88.74
35577;BME280;21680;52.400;16.920;2022-11-06T03:25:53;101163.63;;;2.08;88.74
35577;BME280;21680;52.400;16.920;2022-11-06T03:28:29;101162.22;;;2.05;88.83
35577;BME280;21680;52.400;16.920;2022-11-06T03:30:58;101161.52;;;2.03;89.04
35577;BME280;21680;52.400;16.920;2022-11-06T03:33:48;101162.92;;;2.02;88.82
35577;BME280;21680;52.400;16.920;2022-11-06T03:36:27;101167.16;;;2.00;88.82
35577;BME280;21680;52.400;16.920;2022-11-06T03:38:59;101166.27;;;1.97;88.82
35577;BME280;21680;52.400;16.920;2022-11-06T03:41:33;101171.56;;;1.93;88.97
35577;BME280;21680;52.400;16.920;2022-11-06T03:44:04;101166.10;;;1.91;89.00
35577;BME280;21680;52.400;16.920;2022-11-06T03:46:31;101169.63;;;1.87;88.76
35577;BME280;21680;52.400;16.920;2022-11-06T03:49:04;101167.15;;;1.82;88.87
35577;BME280;21680;52.400;16.920;2022-11-06T03:51:37;101168.56;;;1.78;88.77
35577;BME280;21680;52.400;16.920;2022-11-06T03:54:13;101169.61;;;1.75;88.77
35577;BME280;21680;52.400;16.920;2022-11-06T03:56:51;101171.55;;;1.73;88.87
35577;BME280;21680;52.400;16.920;2022-11-06T03:59:19;101175.77;;;1.72;88.94
35577;BME280;21680;52.400;16.920;2022-11-06T04:01:52;101173.83;;;1.71;88.90
35577;BME280;21680;52.400;16.920;2022-11-06T04:04:37;101170.13;;;1.67;88.85
35577;BME280;21680;52.400;16.920;2022-11-06T04:07:08;101165.19;;;1.63;89.01
35577;BME280;21680;52.400;16.920;2022-11-06T04:09:38;101159.55;;;1.61;88.93
35577;BME280;21680;52.400;16.920;2022-11-06T04:12:25;101162.55;;;1.62;88.97
35577;BME280;21680;52.400;16.920;2022-11-06T04:15:16;101162.90;;;1.59;88.88
35577;BME280;21680;52.400;16.920;2022-11-06T04:17:42;101161.14;;;1.56;88.90
35577;BME280;21680;52.400;16.920;2022-11-06T04:20:11;101157.08;;;1.56;89.09
35577;BME280;21680;52.400;16.920;2022-11-06T04:23:07;101153.20;;;1.56;89.00
35577;BME280;21680;52.400;16.920;2022-11-06T04:25:52;101151.27;;;1.55;89.07
35577;BME280;21680;52.400;16.920;2022-11-06T04:29:00;101148.10;;;1.55;89.08
35577;BME280;21680;52.400;16.920;2022-11-06T04:32:06;101155.67;;;1.57;89.23
35577;BME280;21680;52.400;16.920;2022-11-06T04:34:45;101154.27;;;1.60;89.13
35577;BME280;21680;52.400;16.920;2022-11-06T04:42:54;101151.27;;;1.66;89.33
35577;BME280;21680;52.400;16.920;2022-11-06T04:45:26;101150.77;;;1.68;89.37
35577;BME280;21680;52.400;16.920;2022-11-06T04:47:53;101147.41;;;1.71;89.40
35577;BME280;21680;52.400;16.920;2022-11-06T04:50:21;101149.88;;;1.76;89.31
35577;BME280;21680;52.400;16.920;2022-11-06T04:52:49;101143.89;;;1.79;89.34
35577;BME280;21680;52.400;16.920;2022-11-06T04:55:15;101143.71;;;1.81;89.34
35577;BME280;21680;52.400;16.920;2022-11-06T04:57:41;101141.08;;;1.82;89.39
35577;BME280;21680;52.400;16.920;2022-11-06T05:00:09;101137.55;;;1.84;89.40
35577;BME280;21680;52.400;16.920;2022-11-06T05:02:39;101143.19;;;1.85;89.45
35577;BME280;21680;52.400;16.920;2022-11-06T05:05:05;101141.77;;;1.88;89.56
35577;BME280;21680;52.400;16.920;2022-11-06T05:07:30;101143.55;;;1.88;89.40
35577;BME280;21680;52.400;16.920;2022-11-06T05:09:55;101143.71;;;1.88;89.53
35577;BME280;21680;52.400;16.920;2022-11-06T05:12:21;101144.77;;;1.86;89.45
35577;BME280;21680;52.400;16.920;2022-11-06T05:14:46;101147.06;;;1.86;89.59
35577;BME280;21680;52.400;16.920;2022-11-06T05:17:12;101148.65;;;1.86;89.63
35577;BME280;21680;52.400;16.920;2022-11-06T05:19:37;101149.36;;;1.84;89.58
35577;BME280;21680;52.400;16.920;2022-11-06T05:22:02;101149.53;;;1.84;89.66
35577;BME280;21680;52.400;16.920;2022-11-06T05:24:46;101149.00;;;1.82;89.60
35577;BME280;21680;52.400;16.920;2022-11-06T05:27:12;101151.65;;;1.82;89.60
35577;BME280;21680;52.400;16.920;2022-11-06T05:29:37;101151.12;;;1.83;89.79
35577;BME280;21680;52.400;16.920;2022-11-06T05:32:02;101150.23;;;1.83;89.68
35577;BME280;21680;52.400;16.920;2022-11-06T05:34:28;101147.24;;;1.84;89.78
35577;BME280;21680;52.400;16.920;2022-11-06T05:36:53;101145.13;;;1.87;89.85
35577;BME280;21680;52.400;16.920;2022-11-06T05:39:18;101147.06;;;1.88;89.77
35577;BME280;21680;52.400;16.920;2022-11-06T05:41:43;101149.01;;;1.88;89.95
35577;BME280;21680;52.400;16.920;2022-11-06T05:44:09;101148.30;;;1.87;89.87
35577;BME280;21680;52.400;16.920;2022-11-06T05:46:34;101148.83;;;1.88;89.96
35577;BME280;21680;52.400;16.920;2022-11-06T05:48:59;101150.23;;;1.90;89.96
35577;BME280;21680;52.400;16.920;2022-11-06T05:51:24;101150.95;;;1.90;89.92
35577;BME280;21680;52.400;16.920;2022-11-06T05:53:50;101149.70;;;1.92;90.10
35577;BME280;21680;52.400;16.920;2022-11-06T05:56:15;101143.36;;;1.95;90.12
35577;BME280;21680;52.400;16.920;2022-11-06T05:58:40;101143.89;;;1.95;90.00
35577;BME280;21680;52.400;16.920;2022-11-06T06:01:05;101146.19;;;1.93;90.13
35577;BME280;21680;52.400;16.920;2022-11-06T06:03:31;101153.05;;;1.93;90.09
35577;BME280;21680;52.400;16.920;2022-11-06T06:05:56;101155.88;;;1.91;90.01
35577;BME280;21680;52.400;16.920;2022-11-06T06:08:21;101154.64;;;1.92;90.21
35577;BME280;21680;52.400;16.920;2022-11-06T06:10:47;101153.77;;;1.94;90.24
35577;BME280;21680;52.400;16.920;2022-11-06T06:13:13;101156.40;;;1.95;90.18
35577;BME280;21680;52.400;16.920;2022-11-06T06:15:40;101159.93;;;1.95;90.37
35577;BME280;21680;52.400;16.920;2022-11-06T06:18:06;101160.27;;;1.96;90.43
35577;BME280;21680;52.400;16.920;2022-11-06T06:20:32;101162.05;;;2.00;90.51
35577;BME280;21680;52.400;16.920;2022-11-06T06:22:58;101162.75;;;2.04;90.67
35577;BME280;21680;52.400;16.920;2022-11-06T06:25:25;101162.39;;;2.08;90.63
35577;BME280;21680;52.400;16.920;2022-11-06T06:27:51;101166.27;;;2.12;90.57
35577;BME280;21680;52.400;16.920;2022-11-06T06:30:18;101166.45;;;2.16;90.57
35577;BME280;21680;52.400;16.920;2022-11-06T06:32:43;101168.38;;;2.19;90.71
35577;BME280;21680;52.400;16.920;2022-11-06T06:35:09;101173.49;;;2.20;90.47
35577;BME280;21680;52.400;16.920;2022-11-06T06:37:35;101176.84;;;2.22;90.57
35577;BME280;21680;52.400;16.920;2022-11-06T06:40:01;101174.02;;;2.26;90.70
35577;BME280;21680;52.400;16.920;2022-11-06T06:42:29;101179.48;;;2.32;90.96
35577;BME280;21680;52.400;16.920;2022-11-06T06:44:55;101179.64;;;2.38;90.90
35577;BME280;21680;52.400;16.920;2022-11-06T06:47:21;101178.05;;;2.44;91.00
35577;BME280;21680;52.400;16.920;2022-11-06T06:49:46;101179.09;;;2.50;91.03
35577;BME280;21680;52.400;16.920;2022-11-06T06:52:11;101179.27;;;2.53;91.04
35577;BME280;21680;52.400;16.920;2022-11-06T06:54:37;101181.55;;;2.56;91.10
35577;BME280;21680;52.400;16.920;2022-11-06T06:57:05;101179.26;;;2.58;91.13
35577;BME280;21680;52.400;16.920;2022-11-06T06:59:31;101179.61;;;2.58;91.01
35577;BME280;21680;52.400;16.920;2022-11-06T07:01:56;101177.46;;;2.60;91.08
35577;BME280;21680;52.400;16.920;2022-11-06T07:04:22;101175.15;;;2.65;91.19
35577;BME280;21680;52.400;16.920;2022-11-06T07:06:47;101177.61;;;2.67;91.15
35577;BME280;21680;52.400;16.920;2022-11-06T07:09:13;101174.79;;;2.68;91.14
35577;BME280;21680;52.400;16.920;2022-11-06T07:11:38;101177.08;;;2.70;91.25
35577;BME280;21680;52.400;16.920;2022-11-06T07:14:04;101185.17;;;2.76;91.29
35577;BME280;21680;52.400;16.920;2022-11-06T07:16:29;101183.92;;;2.82;91.28
35577;BME280;21680;52.400;16.920;2022-11-06T07:18:57;101184.08;;;2.87;91.42
35577;BME280;21680;52.400;16.920;2022-11-06T07:21:22;101183.89;;;2.92;91.65
35577;BME280;21680;52.400;16.920;2022-11-06T07:23:47;101189.34;;;2.98;91.79
35577;BME280;21680;52.400;16.920;2022-11-06T07:26:13;101188.79;;;3.05;91.70
35577;BME280;21680;52.400;16.920;2022-11-06T07:28:38;101185.77;;;3.10;91.78
35577;BME280;21680;52.400;16.920;2022-11-06T07:31:06;101183.27;;;3.15;91.54
35577;BME280;21680;52.400;16.920;2022-11-06T07:33:32;101187.85;;;3.19;91.70
35577;BME280;21680;52.400;16.920;2022-11-06T07:36:05;101184.13;;;3.21;91.79
35577;BME280;21680;52.400;16.920;2022-11-06T07:38:32;101181.47;;;3.23;91.75
35577;BME280;21680;52.400;16.920;2022-11-06T07:41:25;101183.39;;;3.28;91.93
35577;BME280;21680;52.400;16.920;2022-11-06T07:43:50;101185.48;;;3.31;91.93
35577;BME280;21680;52.400;16.920;2022-11-06T07:46:16;101192.19;;;3.35;92.05
35577;BME280;21680;52.400;16.920;2022-11-06T07:48:41;101191.11;;;3.39;91.84
35577;BME280;21680;52.400;16.920;2022-11-06T07:51:09;101186.84;;;3.42;91.95
35577;BME280;21680;52.400;16.920;2022-11-06T07:53:35;101184.34;;;3.47;92.09
35577;BME280;21680;52.400;16.920;2022-11-06T07:56:01;101187.16;;;3.50;92.06
35577;BME280;21680;52.400;16.920;2022-11-06T07:58:26;101184.30;;;3.52;92.02
35577;BME280;21680;52.400;16.920;2022-11-06T08:00:55;101186.07;;;3.54;92.17
35577;BME280;21680;52.400;16.920;2022-11-06T08:03:21;101185.17;;;3.54;92.28
35577;BME280;21680;52.400;16.920;2022-11-06T08:05:47;101180.59;;;3.54;92.19
35577;BME280;21680;52.400;16.920;2022-11-06T08:08:13;101178.45;;;3.57;92.09
35577;BME280;21680;52.400;16.920;2022-11-06T08:10:38;101178.78;;;3.62;92.13
35577;BME280;21680;52.400;16.920;2022-11-06T08:13:12;101177.33;;;3.68;92.34
35577;BME280;21680;52.400;16.920;2022-11-06T08:15:38;101182.22;;;3.75;92.46
35577;BME280;21680;52.400;16.920;2022-11-06T08:18:05;101182.16;;;3.83;92.48
35577;BME280;21680;52.400;16.920;2022-11-06T08:20:33;101184.23;;;3.90;92.62
35577;BME280;21680;52.400;16.920;2022-11-06T08:23:02;101180.47;;;3.98;92.60
35577;BME280;21680;52.400;16.920;2022-11-06T08:25:29;101178.98;;;4.05;92.65
35577;BME280;21680;52.400;16.920;2022-11-06T08:27:59;101187.03;;;4.16;92.75
35577;BME280;21680;52.400;16.920;2022-11-06T08:30:26;101185.86;;;4.28;92.93
35577;BME280;21680;52.400;16.920;2022-11-06T08:32:52;101184.70;;;4.39;92.98
35577;BME280;21680;52.400;16.920;2022-11-06T08:35:18;101183.71;;;4.50;93.11
35577;BME280;21680;52.400;16.920;2022-11-06T08:37:43;101180.09;;;4.58;92.81
35577;BME280;21680;52.400;16.920;2022-11-06T08:40:09;101181.77;;;4.67;93.01
35577;BME280;21680;52.400;16.920;2022-11-06T08:42:35;101186.27;;;4.77;92.94
35577;BME280;21680;52.400;16.920;2022-11-06T08:45:01;101180.64;;;4.88;93.17
35577;BME280;21680;52.400;16.920;2022-11-06T08:47:26;101178.58;;;4.99;93.13
35577;BME280;21680;52.400;16.920;2022-11-06T08:49:51;101175.09;;;5.08;93.05
35577;BME280;21680;52.400;16.920;2022-11-06T08:52:16;101173.04;;;5.16;93.14
35577;BME280;21680;52.400;16.920;2022-11-06T08:54:42;101173.09;;;5.24;93.22
35577;BME280;21680;52.400;16.920;2022-11-06T08:57:07;101170.85;;;5.32;93.08
35577;BME280;21680;52.400;16.920;2022-11-06T08:59:32;101171.63;;;5.40;93.27
35577;BME280;21680;52.400;16.920;2022-11-06T09:01:58;101170.81;;;5.48;93.31
35577;BME280;21680;52.400;16.920;2022-11-06T09:04:24;101166.60;;;5.58;93.43
35577;BME280;21680;52.400;16.920;2022-11-06T09:06:49;101162.02;;;5.68;93.50
35577;BME280;21680;52.400;16.920;2022-11-06T09:09:14;101168.44;;;5.77;93.36
35577;BME280;21680;52.400;16.920;2022-11-06T09:11:39;101163.71;;;5.84;93.39
35577;BME280;21680;52.400;16.920;2022-11-06T09:14:05;101163.82;;;5.90;93.38
35577;BME280;21680;52.400;16.920;2022-11-06T09:16:30;101164.77;;;5.98;93.38
35577;BME280;21680;52.400;16.920;2022-11-06T09:18:56;101166.42;;;6.05;93.41
35577;BME280;21680;52.400;16.920;2022-11-06T09:21:22;101163.83;;;6.12;93.35
35577;BME280;21680;52.400;16.920;2022-11-06T09:23:48;101164.75;;;6.20;93.39
35577;BME280;21680;52.400;16.920;2022-11-06T09:26:13;101164.05;;;6.30;93.39
35577;BME280;21680;52.400;16.920;2022-11-06T09:28:39;101158.17;;;6.41;93.59
35577;BME280;21680;52.400;16.920;2022-11-06T09:31:05;101154.41;;;6.52;93.54
35577;BME280;21680;52.400;16.920;2022-11-06T09:33:30;101154.21;;;6.63;93.60
35577;BME280;21680;52.400;16.920;2022-11-06T09:35:56;101155.05;;;6.74;93.68
35577;BME280;21680;52.400;16.920;2022-11-06T09:38:21;101146.27;;;6.87;93.69
35577;BME280;21680;52.400;16.920;2022-11-06T09:41:00;101148.39;;;6.97;93.62
35577;BME280;21680;52.400;16.920;2022-11-06T09:46:49;101142.75;;;7.11;93.70
35577;BME280;21680;52.400;16.920;2022-11-06T09:48:54;101146.83;;;7.20;93.57
35577;BME280;21680;52.400;16.920;2022-11-06T09:51:47;101144.30;;;7.31;93.55
35577;BME280;21680;52.400;16.920;2022-11-06T09:54:25;101140.48;;;7.42;93.62
35577;BME280;21680;52.400;16.920;2022-11-06T09:57:08;101143.80;;;7.52;93.58
35577;BME280;21680;52.400;16.920;2022-11-06T09:59:35;101141.02;;;7.64;93.60
35577;BME280;21680;52.400;16.920;2022-11-06T10:02:18;101137.02;;;7.76;93.59
35577;BME280;21680;52.400;16.920;2022-11-06T10:04:57;101129.48;;;7.86;93.38
35577;BME280;21680;52.400;16.920;2022-11-06T10:07:42;101129.41;;;7.95;93.50
35577;BME280;21680;52.400;16.920;2022-11-06T10:10:17;101123.60;;;8.06;93.61
35577;BME280;21680;52.400;16.920;2022-11-06T10:15:53;101115.48;;;8.32;93.71
35577;BME280;21680;52.400;16.920;2022-11-06T10:21:14;101102.73;;;8.56;93.45
35577;BME280;21680;52.400;16.920;2022-11-06T10:23:52;101104.95;;;8.65;93.30
35577;BME280;21680;52.400;16.920;2022-11-06T10:26:41;101099.98;;;8.71;93.17
35577;BME280;21680;52.400;16.920;2022-11-06T10:32:04;101094.51;;;8.88;93.12
35577;BME280;21680;52.400;16.920;2022-11-06T10:34:40;101094.98;;;8.96;92.98
35577;BME280;21680;52.400;16.920;2022-11-06T10:37:48;101092.46;;;8.97;92.80
35577;BME280;21680;52.400;16.920;2022-11-06T10:40:20;101081.73;;;9.04;92.95
35577;BME280;21680;52.400;16.920;2022-11-06T10:43:05;101077.80;;;9.10;92.85
35577;BME280;21680;52.400;16.920;2022-11-06T10:45:35;101076.42;;;9.20;92.61
35577;BME280;21680;52.400;16.920;2022-11-06T10:48:25;101074.10;;;9.26;92.59
35577;BME280;21680;52.400;16.920;2022-11-06T10:51:06;101070.76;;;9.30;92.52
35577;BME280;21680;52.400;16.920;2022-11-06T10:58:46;101052.98;;;9.39;92.20
35577;BME280;21680;52.400;16.920;2022-11-06T11:01:13;101049.27;;;9.44;92.20
35577;BME280;21680;52.400;16.920;2022-11-06T11:03:41;101048.95;;;9.49;92.00
35577;BME280;21680;52.400;16.920;2022-11-06T11:06:07;101041.20;;;9.51;91.76
35577;BME280;21680;52.400;16.920;2022-11-06T11:08:40;101044.79;;;9.56;91.77
35577;BME280;21680;52.400;16.920;2022-11-06T11:13:38;101041.38;;;9.62;91.39
35577;BME280;21680;52.400;16.920;2022-11-06T11:16:12;101038.54;;;9.61;91.36
35577;BME280;21680;52.400;16.920;2022-11-06T11:18:38;101033.05;;;9.65;91.25
35577;BME280;21680;52.400;16.920;2022-11-06T11:21:09;101025.02;;;9.71;91.28
35577;BME280;21680;52.400;16.920;2022-11-06T11:23:38;101025.90;;;9.76;91.12
35577;BME280;21680;52.400;16.920;2022-11-06T11:26:19;101025.09;;;9.84;90.79
35577;BME280;21680;52.400;16.920;2022-11-06T11:28:59;101018.46;;;9.90;90.78
35577;BME280;21680;52.400;16.920;2022-11-06T11:31:34;101015.33;;;9.93;90.58
35577;BME280;21680;52.400;16.920;2022-11-06T11:34:03;101009.03;;;9.94;90.48
35577;BME280;21680;52.400;16.920;2022-11-06T11:36:54;101010.77;;;10.00;90.40
35577;BME280;21680;52.400;16.920;2022-11-06T11:39:24;101005.64;;;10.09;90.27
35577;BME280;21680;52.400;16.920;2022-11-06T11:41:51;101002.71;;;10.17;89.37
35577;BME280;21680;52.400;16.920;2022-11-06T11:44:17;100998.01;;;10.18;89.04
35577;BME280;21680;52.400;16.920;2022-11-06T11:46:47;100992.96;;;10.21;88.99
35577;BME280;21680;52.400;16.920;2022-11-06T11:49:33;100984.23;;;10.25;89.33
35577;BME280;21680;52.400;16.920;2022-11-06T11:52:04;100982.00;;;10.27;88.91
35577;BME280;21680;52.400;16.920;2022-11-06T11:54:35;100979.09;;;10.33;88.86
35577;BME280;21680;52.400;16.920;2022-11-06T11:57:04;100980.23;;;10.40;88.39
35577;BME280;21680;52.400;16.920;2022-11-06T11:59:46;100978.55;;;10.47;88.72
35577;BME280;21680;52.400;16.920;2022-11-06T12:02:24;100973.15;;;10.53;88.29
35577;BME280;21680;52.400;16.920;2022-11-06T12:04:57;100970.83;;;10.57;87.95
35577;BME280;21680;52.400;16.920;2022-11-06T12:09:56;100969.09;;;10.56;87.68
35577;BME280;21680;52.400;16.920;2022-11-06T12:12:25;100971.20;;;10.61;87.68
35577;BME280;21680;52.400;16.920;2022-11-06T12:15:20;100971.41;;;10.74;87.86
35577;BME280;21680;52.400;16.920;2022-11-06T12:17:55;100966.29;;;10.78;87.42
35577;BME280;21680;52.400;16.920;2022-11-06T12:20:26;100966.24;;;10.74;87.14
35577;BME280;21680;52.400;16.920;2022-11-06T12:22:55;100962.10;;;10.80;87.16
35577;BME280;21680;52.400;16.920;2022-11-06T12:25:25;100964.89;;;10.86;86.86
35577;BME280;21680;52.400;16.920;2022-11-06T12:27:57;100961.80;;;10.92;86.61
35577;BME280;21680;52.400;16.920;2022-11-06T12:30:23;100959.30;;;10.96;86.55
35577;BME280;21680;52.400;16.920;2022-11-06T12:33:16;100961.08;;;11.01;86.27
35577;BME280;21680;52.400;16.920;2022-11-06T12:35:46;100955.05;;;11.04;86.10
35577;BME280;21680;52.400;16.920;2022-11-06T12:40:48;100946.73;;;11.06;85.57
35577;BME280;21680;52.400;16.920;2022-11-06T12:43:40;100948.89;;;11.11;85.58
35577;BME280;21680;52.400;16.920;2022-11-06T12:49:27;100939.50;;;11.17;85.04
35577;BME280;21680;52.400;16.920;2022-11-06T13:00:10;100939.04;;;11.11;84.61
35577;BME280;21680;52.400;16.920;2022-11-06T13:03:11;100937.96;;;11.11;84.52
35577;BME280;21680;52.400;16.920;2022-11-06T13:06:15;100942.48;;;11.10;84.35
35577;BME280;21680;52.400;16.920;2022-11-06T13:09:01;100938.23;;;11.09;84.18
35577;BME280;21680;52.400;16.920;2022-11-06T13:12:11;100936.45;;;11.08;83.89
35577;BME280;21680;52.400;16.920;2022-11-06T13:15:16;100938.29;;;11.07;83.58
35577;BME280;21680;52.400;16.920;2022-11-06T13:17:52;100938.45;;;11.08;83.61
35577;BME280;21680;52.400;16.920;2022-11-06T13:20:25;100932.25;;;11.05;83.48
35577;BME280;21680;52.400;16.920;2022-11-06T13:23:13;100934.71;;;11.07;83.07
35577;BME280;21680;52.400;16.920;2022-11-06T13:26:12;100928.92;;;11.09;83.15
35577;BME280;21680;52.400;16.920;2022-11-06T13:29:02;100930.08;;;11.11;83.08
35577;BME280;21680;52.400;16.920;2022-11-06T13:31:45;100928.38;;;11.09;82.88
35577;BME280;21680;52.400;16.920;2022-11-06T13:34:23;100930.67;;;11.05;82.77
35577;BME280;21680;52.400;16.920;2022-11-06T13:36:50;100930.85;;;11.05;82.39
35577;BME280;21680;52.400;16.920;2022-11-06T13:39:32;100925.55;;;11.03;82.46
35577;BME280;21680;52.400;16.920;2022-11-06T13:42:00;100924.91;;;11.02;82.30
35577;BME280;21680;52.400;16.920;2022-11-06T13:44:27;100924.80;;;11.00;82.18
35577;BME280;21680;52.400;16.920;2022-11-06T13:47:07;100923.72;;;10.96;82.08
35577;BME280;21680;52.400;16.920;2022-11-06T13:49:59;100918.99;;;10.93;81.97
35577;BME280;21680;52.400;16.920;2022-11-06T14:00:38;100905.19;;;10.86;81.60
35577;BME280;21680;52.400;16.920;2022-11-06T14:03:40;100907.05;;;10.84;81.60
35577;BME280;21680;52.400;16.920;2022-11-06T14:06:19;100909.98;;;10.82;81.32
35577;BME280;21680;52.400;16.920;2022-11-06T14:08:46;100905.30;;;10.79;81.30
35577;BME280;21680;52.400;16.920;2022-11-06T14:11:16;100903.70;;;10.73;80.89
35577;BME280;21680;52.400;16.920;2022-11-06T14:13:57;100902.77;;;10.70;80.89
35577;BME280;21680;52.400;16.920;2022-11-06T14:16:30;100903.90;;;10.69;80.85